createdAt,value
2023-02-11T00:00:55.745Z,4.33
2023-02-11T00:01:55.756Z,4.34
2023-02-11T00:02:55.759Z,4.36
2023-02-11T00:03:55.700Z,4.34
2023-02-11T00:04:55.716Z,4.36
2023-02-11T00:06:03.209Z,4.40
2023-02-11T00:06:55.679Z,4.36
2023-02-11T00:08:02.676Z,4.36
2023-02-11T00:09:02.662Z,4.40
2023-02-11T00:09:55.653Z,4.40
2023-02-11T00:10:55.633Z,4.42
2023-02-11T00:11:55.614Z,4.37
2023-02-11T00:12:55.603Z,4.37
2023-02-11T00:13:55.614Z,4.40
2023-02-11T00:14:55.622Z,4.37
2023-02-11T00:15:55.578Z,4.37
2023-02-11T00:16:55.630Z,4.41
2023-02-11T00:17:55.542Z,4.37
2023-02-11T00:18:55.538Z,4.37
2023-02-11T00:19:55.533Z,4.37
2023-02-11T00:20:55.516Z,4.36
2023-02-11T00:21:55.503Z,4.36
2023-02-11T00:22:55.499Z,4.36
2023-02-11T00:23:55.483Z,4.34
2023-02-11T00:24:55.474Z,4.34
2023-02-11T00:25:55.452Z,4.34
2023-02-11T00:26:55.473Z,4.33
2023-02-11T00:27:55.472Z,4.32
2023-02-11T00:28:55.413Z,4.32
2023-02-11T00:29:55.412Z,4.33
2023-02-11T00:30:55.541Z,4.34
2023-02-11T00:31:55.556Z,4.33
2023-02-11T00:32:55.391Z,4.33
2023-02-11T00:33:55.363Z,4.34
2023-02-11T00:34:55.364Z,4.34
2023-02-11T00:35:55.337Z,4.34
2023-02-11T00:36:55.339Z,4.33
2023-02-11T00:37:55.327Z,4.34
2023-02-11T00:38:55.305Z,4.32
2023-02-11T00:39:55.309Z,4.32
2023-02-11T00:40:55.287Z,4.32
2023-02-11T00:41:55.260Z,4.32
2023-02-11T00:42:55.270Z,4.32
2023-02-11T00:43:55.239Z,4.32
2023-02-11T00:44:55.256Z,4.32
2023-02-11T00:45:55.237Z,4.30
2023-02-11T00:46:55.212Z,4.27
2023-02-11T00:47:55.213Z,4.29
2023-02-11T00:48:55.223Z,4.26
2023-02-11T00:49:55.181Z,4.24
2023-02-11T00:50:55.169Z,4.23
2023-02-11T00:51:55.149Z,4.20
2023-02-11T00:52:55.159Z,4.18
2023-02-11T00:53:55.127Z,4.16
2023-02-11T00:54:55.135Z,4.16
2023-02-11T00:55:55.110Z,4.15
2023-02-11T00:56:55.089Z,4.11
2023-02-11T00:57:55.109Z,4.11
2023-02-11T00:58:55.102Z,4.11
2023-02-11T00:59:55.060Z,4.11
2023-02-11T01:00:55.049Z,4.11
2023-02-11T01:01:55.054Z,4.11
2023-02-11T01:02:55.044Z,4.09
2023-02-11T01:03:55.018Z,4.08
2023-02-11T01:04:55.025Z,4.08
2023-02-11T01:05:55.000Z,4.08
2023-02-11T01:06:54.991Z,4.06
2023-02-11T01:07:54.982Z,4.05
2023-02-11T01:08:54.960Z,4.05
2023-02-11T01:09:54.975Z,4.02
2023-02-11T01:10:54.933Z,4.00
2023-02-11T01:11:54.944Z,3.94
2023-02-11T01:12:54.924Z,3.93
2023-02-11T01:13:54.913Z,3.91
2023-02-11T01:14:54.894Z,3.91
2023-02-11T01:15:54.963Z,3.90
2023-02-11T01:16:54.867Z,3.88
2023-02-11T01:17:54.882Z,3.88
2023-02-11T01:18:54.845Z,3.87
2023-02-11T01:19:54.855Z,3.86
2023-02-11T01:20:54.826Z,3.86
2023-02-11T01:21:54.815Z,3.84
2023-02-11T01:22:54.795Z,3.86
2023-02-11T01:23:54.805Z,3.86
2023-02-11T01:24:54.841Z,3.84
2023-02-11T01:25:54.788Z,3.87
2023-02-11T01:26:54.757Z,3.87
2023-02-11T01:27:54.805Z,3.84
2023-02-11T01:28:54.744Z,3.84
2023-02-11T01:29:54.726Z,3.83
2023-02-11T01:30:54.761Z,3.80
2023-02-11T01:31:54.765Z,3.80
2023-02-11T01:32:54.708Z,3.79
2023-02-11T01:33:54.679Z,3.76
2023-02-11T01:34:54.647Z,3.73
2023-02-11T01:36:01.670Z,3.70
2023-02-11T01:37:01.640Z,3.70
2023-02-11T01:38:02.661Z,3.68
2023-02-11T01:39:01.645Z,3.65
2023-02-11T01:40:02.137Z,3.61
2023-02-11T01:40:54.596Z,3.60
2023-02-11T01:41:54.598Z,3.60
2023-02-11T01:42:54.587Z,3.60
2023-02-11T01:43:54.565Z,3.60
2023-02-11T01:44:54.543Z,3.60
2023-02-11T01:45:54.566Z,3.60
2023-02-11T01:46:54.527Z,3.61
2023-02-11T01:47:54.529Z,3.60
2023-02-11T01:48:54.516Z,3.58
2023-02-11T01:49:54.496Z,3.55
2023-02-11T01:50:54.486Z,3.54
2023-02-11T01:51:54.465Z,3.54
2023-02-11T01:52:54.466Z,3.54
2023-02-11T01:53:54.445Z,3.52
2023-02-11T01:54:54.434Z,3.50
2023-02-11T01:55:54.428Z,3.50
2023-02-11T01:56:54.414Z,3.50
2023-02-11T01:57:54.425Z,3.50
2023-02-11T01:58:54.386Z,3.47
2023-02-11T01:59:54.397Z,3.45
2023-02-11T02:00:54.355Z,3.43
2023-02-11T02:01:54.470Z,3.40
2023-02-11T02:02:54.334Z,3.39
2023-02-11T02:03:54.508Z,3.36
2023-02-11T02:04:54.337Z,3.33
2023-02-11T02:05:54.311Z,3.35
2023-02-11T02:06:54.298Z,3.33
2023-02-11T02:07:54.297Z,3.32
2023-02-11T02:08:54.270Z,3.31
2023-02-11T02:09:54.286Z,3.29
2023-02-11T02:10:54.277Z,3.26
2023-02-11T02:11:54.242Z,3.24
2023-02-11T02:12:54.222Z,3.26
2023-02-11T02:13:54.220Z,3.26
2023-02-11T02:14:54.214Z,3.26
2023-02-11T02:15:54.279Z,3.24
2023-02-11T02:16:54.205Z,3.26
2023-02-11T02:17:54.157Z,3.26
2023-02-11T02:18:54.190Z,3.24
2023-02-11T02:19:54.142Z,3.24
2023-02-11T02:20:54.135Z,3.23
2023-02-11T02:21:54.111Z,3.24
2023-02-11T02:22:54.142Z,3.24
2023-02-11T02:23:54.095Z,3.23
2023-02-11T02:24:54.223Z,3.21
2023-02-11T02:25:54.095Z,3.21
2023-02-11T02:26:54.065Z,3.18
2023-02-11T02:27:54.040Z,3.20
2023-02-11T02:28:54.033Z,3.20
2023-02-11T02:29:54.061Z,3.21
2023-02-11T02:30:54.143Z,3.20
2023-02-11T02:31:54.017Z,3.21
2023-02-11T02:32:53.993Z,3.21
2023-02-11T02:33:53.985Z,3.21
2023-02-11T02:34:53.968Z,3.20
2023-02-11T02:35:53.950Z,3.21
2023-02-11T02:36:53.940Z,3.20
2023-02-11T02:37:53.940Z,3.20
2023-02-11T02:38:53.940Z,3.21
2023-02-11T02:39:53.905Z,3.18
2023-02-11T02:40:53.903Z,3.17
2023-02-11T02:41:53.880Z,3.18
2023-02-11T02:42:53.888Z,3.17
2023-02-11T02:43:53.894Z,3.14
2023-02-11T02:44:53.853Z,3.14
2023-02-11T02:45:53.847Z,3.17
2023-02-11T02:46:53.934Z,3.15
2023-02-11T02:47:53.814Z,3.17
2023-02-11T02:48:53.826Z,3.18
2023-02-11T02:49:53.793Z,3.17
2023-02-11T02:50:53.788Z,3.17
2023-02-11T02:51:53.785Z,3.15
2023-02-11T02:52:53.772Z,3.17
2023-02-11T02:53:53.762Z,3.15
2023-02-11T02:54:53.744Z,3.13
2023-02-11T02:55:53.773Z,3.10
2023-02-11T02:56:53.720Z,3.11
2023-02-11T02:57:53.708Z,3.11
2023-02-11T02:58:53.700Z,3.11
2023-02-11T02:59:53.688Z,3.10
2023-02-11T03:00:53.721Z,3.10
2023-02-11T03:01:53.645Z,3.13
2023-02-11T03:02:53.637Z,3.13
2023-02-11T03:03:53.717Z,3.11
2023-02-11T03:04:53.627Z,3.13
2023-02-11T03:05:53.773Z,3.14
2023-02-11T03:06:53.621Z,3.14
2023-02-11T03:08:01.112Z,3.13
2023-02-11T03:09:00.581Z,3.13
2023-02-11T03:10:00.610Z,3.10
2023-02-11T03:10:53.570Z,3.10
2023-02-11T03:11:53.861Z,3.06
2023-02-11T03:12:53.530Z,3.03
2023-02-11T03:13:53.540Z,2.99
2023-02-11T03:14:53.530Z,2.96
2023-02-11T03:15:53.770Z,2.95
2023-02-11T03:16:53.490Z,2.92
2023-02-11T03:17:53.480Z,2.90
2023-02-11T03:18:53.462Z,2.90
2023-02-11T03:19:53.461Z,2.90
2023-02-11T03:20:53.454Z,2.85
2023-02-11T03:21:54.166Z,2.82
2023-02-11T03:22:53.410Z,2.82
2023-02-11T03:23:53.413Z,2.81
2023-02-11T03:24:53.414Z,2.78
2023-02-11T03:25:53.381Z,2.75
2023-02-11T03:26:53.370Z,2.74
2023-02-11T03:27:53.360Z,2.74
2023-02-11T03:28:53.381Z,2.71
2023-02-11T03:29:53.332Z,2.67
2023-02-11T03:30:53.428Z,2.63
2023-02-11T03:31:53.727Z,2.60
2023-02-11T03:32:53.318Z,2.57
2023-02-11T03:33:53.300Z,2.54
2023-02-11T03:34:53.273Z,2.53
2023-02-11T03:35:53.270Z,2.52
2023-02-11T03:36:53.263Z,2.46
2023-02-11T03:37:53.243Z,2.43
2023-02-11T03:38:53.262Z,2.41
2023-02-11T03:39:53.259Z,2.39
2023-02-11T03:40:53.202Z,2.36
2023-02-11T03:41:53.236Z,2.38
2023-02-11T03:42:53.187Z,2.35
2023-02-11T03:43:53.181Z,2.36
2023-02-11T03:44:53.183Z,2.38
2023-02-11T03:45:53.626Z,2.38
2023-02-11T03:46:53.151Z,2.36
2023-02-11T03:47:53.133Z,2.34
2023-02-11T03:48:53.111Z,2.34
2023-02-11T03:49:53.124Z,2.30
2023-02-11T03:50:53.096Z,2.27
2023-02-11T03:51:53.091Z,2.27
2023-02-11T03:52:53.070Z,2.30
2023-02-11T03:53:53.104Z,2.31
2023-02-11T03:54:53.051Z,2.31
2023-02-11T03:55:53.131Z,2.31
2023-02-11T03:56:53.026Z,2.35
2023-02-11T03:57:53.023Z,2.35
2023-02-11T03:58:53.002Z,2.36
2023-02-11T03:59:53.015Z,2.38
2023-02-11T04:00:53.019Z,2.36
2023-02-11T04:01:53.281Z,2.35
2023-02-11T04:02:52.990Z,2.36
2023-02-11T04:03:52.957Z,2.35
2023-02-11T04:04:52.951Z,2.34
2023-02-11T04:05:52.970Z,2.31
2023-02-11T04:06:52.911Z,2.28
2023-02-11T04:07:52.903Z,2.28
2023-02-11T04:08:52.904Z,2.27
2023-02-11T04:09:52.927Z,2.28
2023-02-11T04:10:52.893Z,2.28
2023-02-11T04:11:52.919Z,2.28
2023-02-11T04:12:52.866Z,2.30
2023-02-11T04:13:52.844Z,2.28
2023-02-11T04:14:52.842Z,2.28
2023-02-11T04:15:53.178Z,2.28
2023-02-11T04:16:52.817Z,2.28
2023-02-11T04:17:52.791Z,2.28
2023-02-11T04:18:52.794Z,2.28
2023-02-11T04:19:53.086Z,2.27
2023-02-11T04:20:52.763Z,2.24
2023-02-11T04:21:52.791Z,2.25
2023-02-11T04:22:52.731Z,2.28
2023-02-11T04:23:52.723Z,2.28
2023-02-11T04:24:52.739Z,2.31
2023-02-11T04:25:52.978Z,2.34
2023-02-11T04:26:52.693Z,2.31
2023-02-11T04:27:52.690Z,2.34
2023-02-11T04:28:52.685Z,2.35
2023-02-11T04:29:52.680Z,2.34
2023-02-11T04:30:52.662Z,2.31
2023-02-11T04:31:52.725Z,2.34
2023-02-11T04:32:52.624Z,2.31
2023-02-11T04:33:52.612Z,2.27
2023-02-11T04:34:52.625Z,2.24
2023-02-11T04:35:52.770Z,2.23
2023-02-11T04:36:59.633Z,2.21
2023-02-11T04:37:59.586Z,2.20
2023-02-11T04:39:00.582Z,2.18
2023-02-11T04:39:59.593Z,2.20
2023-02-11T04:40:59.552Z,2.18
2023-02-11T04:41:52.523Z,2.21
2023-02-11T04:42:52.513Z,2.20
2023-02-11T04:43:52.504Z,2.21
2023-02-11T04:44:52.516Z,2.23
2023-02-11T04:45:52.871Z,2.25
2023-02-11T04:46:52.482Z,2.27
2023-02-11T04:47:52.458Z,2.27
2023-02-11T04:48:52.470Z,2.31
2023-02-11T04:49:52.444Z,2.31
2023-02-11T04:50:52.438Z,2.35
2023-02-11T04:51:52.406Z,2.36
2023-02-11T04:52:52.415Z,2.36
2023-02-11T04:53:52.395Z,2.36
2023-02-11T04:54:52.394Z,2.35
2023-02-11T04:55:52.668Z,2.35
2023-02-11T04:56:52.375Z,2.31
2023-02-11T04:57:52.364Z,2.30
2023-02-11T04:58:52.343Z,2.28
2023-02-11T04:59:52.332Z,2.27
2023-02-11T05:00:52.365Z,2.25
2023-02-11T05:01:52.303Z,2.25
2023-02-11T05:02:52.293Z,2.27
2023-02-11T05:03:52.311Z,2.27
2023-02-11T05:04:52.298Z,2.30
2023-02-11T05:05:52.706Z,2.31
2023-02-11T05:06:52.256Z,2.34
2023-02-11T05:07:52.276Z,2.35
2023-02-11T05:08:52.240Z,2.38
2023-02-11T05:09:52.226Z,2.39
2023-02-11T05:10:52.216Z,2.41
2023-02-11T05:11:52.361Z,2.43
2023-02-11T05:12:54.649Z,2.45
2023-02-11T05:13:52.164Z,2.46
2023-02-11T05:14:52.191Z,2.48
2023-02-11T05:15:52.536Z,2.54
2023-02-11T05:16:52.229Z,2.57
2023-02-11T05:17:52.122Z,2.60
2023-02-11T05:18:52.679Z,2.61
2023-02-11T05:19:52.113Z,2.64
2023-02-11T05:20:52.104Z,2.67
2023-02-11T05:22:02.045Z,2.71
2023-02-11T05:22:53.077Z,2.74
2023-02-11T05:23:52.058Z,2.77
2023-02-11T05:24:52.067Z,2.81
2023-02-11T05:25:52.376Z,2.84
2023-02-11T05:26:52.033Z,2.85
2023-02-11T05:27:52.022Z,2.89
2023-02-11T05:28:52.006Z,2.93
2023-02-11T05:29:52.015Z,2.95
2023-02-11T05:30:52.071Z,2.96
2023-02-11T05:31:51.964Z,3.00
2023-02-11T05:32:51.987Z,3.03
2023-02-11T05:33:51.960Z,3.05
2023-02-11T05:34:51.935Z,3.06
2023-02-11T05:35:52.189Z,3.06
2023-02-11T05:36:51.917Z,3.08
2023-02-11T05:37:51.905Z,3.13
2023-02-11T05:38:51.892Z,3.14
2023-02-11T05:39:51.889Z,3.14
2023-02-11T05:40:51.872Z,3.15
2023-02-11T05:41:51.867Z,3.18
2023-02-11T05:42:51.846Z,3.20
2023-02-11T05:43:51.836Z,3.20
2023-02-11T05:44:51.838Z,3.23
2023-02-11T05:45:52.154Z,3.23
2023-02-11T05:46:51.804Z,3.24
2023-02-11T05:47:51.781Z,3.23
2023-02-11T05:48:51.787Z,3.24
2023-02-11T05:49:51.774Z,3.26
2023-02-11T05:50:51.761Z,3.28
2023-02-11T05:51:51.753Z,3.29
2023-02-11T05:52:51.733Z,3.32
2023-02-11T05:53:51.712Z,3.32
2023-02-11T05:54:51.718Z,3.29
2023-02-11T05:55:51.981Z,3.29
2023-02-11T05:56:51.683Z,3.29
2023-02-11T05:57:51.691Z,3.31
2023-02-11T05:58:51.665Z,3.32
2023-02-11T05:59:51.693Z,3.31
2023-02-11T06:00:51.624Z,3.31
2023-02-11T06:01:51.635Z,3.29
2023-02-11T06:02:51.654Z,3.29
2023-02-11T06:03:51.673Z,3.28
2023-02-11T06:04:51.596Z,3.28
2023-02-11T06:05:51.904Z,3.29
2023-02-11T06:06:51.597Z,3.29
2023-02-11T06:07:51.554Z,3.28
2023-02-11T06:08:58.574Z,3.28
2023-02-11T06:09:58.556Z,3.26
2023-02-11T06:10:58.538Z,3.26
2023-02-11T06:11:58.536Z,3.26
2023-02-11T06:12:51.494Z,3.26
2023-02-11T06:13:51.484Z,3.26
2023-02-11T06:14:51.505Z,3.24
2023-02-11T06:15:51.819Z,3.26
2023-02-11T06:16:51.478Z,3.29
2023-02-11T06:17:51.445Z,3.29
2023-02-11T06:18:51.434Z,3.29
2023-02-11T06:19:51.439Z,3.32
2023-02-11T06:20:51.404Z,3.33
2023-02-11T06:21:51.399Z,3.35
2023-02-11T06:22:51.389Z,3.39
2023-02-11T06:23:51.364Z,3.42
2023-02-11T06:25:01.344Z,3.43
2023-02-11T06:25:52.545Z,3.43
2023-02-11T06:26:51.365Z,3.47
2023-02-11T06:27:51.325Z,3.48
2023-02-11T06:28:51.316Z,3.51
2023-02-11T06:29:51.316Z,3.51
2023-02-11T06:30:51.409Z,3.57
2023-02-11T06:31:51.411Z,3.58
2023-02-11T06:32:51.331Z,3.60
2023-02-11T06:33:51.254Z,3.61
2023-02-11T06:34:51.276Z,3.61
2023-02-11T06:35:51.504Z,3.62
2023-02-11T06:36:51.238Z,3.65
2023-02-11T06:37:51.218Z,3.66
2023-02-11T06:38:51.211Z,3.66
2023-02-11T06:39:51.219Z,3.66
2023-02-11T06:40:51.190Z,3.68
2023-02-11T06:41:51.167Z,3.66
2023-02-11T06:42:51.161Z,3.69
2023-02-11T06:43:51.145Z,3.69
2023-02-11T06:44:51.147Z,3.72
2023-02-11T06:45:51.416Z,3.73
2023-02-11T06:46:51.151Z,3.76
2023-02-11T06:47:51.096Z,3.78
2023-02-11T06:48:51.098Z,3.78
2023-02-11T06:49:51.078Z,3.78
2023-02-11T06:50:51.070Z,3.79
2023-02-11T06:51:51.058Z,3.83
2023-02-11T06:52:51.045Z,3.83
2023-02-11T06:53:51.042Z,3.84
2023-02-11T06:54:51.018Z,3.86
2023-02-11T06:55:51.264Z,3.87
2023-02-11T06:56:51.008Z,3.88
2023-02-11T06:57:52.781Z,3.88
2023-02-11T06:58:50.979Z,3.91
2023-02-11T06:59:50.950Z,3.93
2023-02-11T07:00:50.950Z,3.93
2023-02-11T07:01:50.958Z,3.91
2023-02-11T07:02:50.988Z,3.91
2023-02-11T07:03:50.907Z,3.91
2023-02-11T07:04:50.923Z,3.90
2023-02-11T07:05:51.237Z,3.91
2023-02-11T07:06:50.892Z,3.88
2023-02-11T07:07:50.862Z,3.91
2023-02-11T07:08:50.858Z,3.91
2023-02-11T07:09:50.859Z,3.93
2023-02-11T07:10:50.835Z,3.96
2023-02-11T07:11:50.868Z,3.96
2023-02-11T07:12:51.122Z,3.97
2023-02-11T07:13:50.800Z,3.96
2023-02-11T07:14:50.817Z,3.97
2023-02-11T07:15:51.107Z,3.98
2023-02-11T07:16:50.783Z,3.98
2023-02-11T07:17:50.749Z,4.00
2023-02-11T07:18:50.730Z,4.02
2023-02-11T07:19:50.743Z,4.02
2023-02-11T07:20:50.740Z,4.02
2023-02-11T07:21:50.730Z,4.02
2023-02-11T07:22:50.701Z,4.02
2023-02-11T07:23:50.689Z,4.02
2023-02-11T07:24:50.683Z,4.02
2023-02-11T07:25:50.969Z,4.00
2023-02-11T07:26:50.657Z,4.04
2023-02-11T07:27:50.641Z,4.04
2023-02-11T07:28:50.620Z,4.06
2023-02-11T07:29:50.612Z,4.08
2023-02-11T07:30:50.621Z,4.11
2023-02-11T07:31:50.663Z,4.11
2023-02-11T07:32:50.569Z,4.12
2023-02-11T07:33:50.571Z,4.12
2023-02-11T07:34:50.569Z,4.14
2023-02-11T07:35:50.773Z,4.14
2023-02-11T07:36:50.563Z,4.16
2023-02-11T07:37:50.510Z,4.15
2023-02-11T07:38:57.519Z,4.16
2023-02-11T07:39:57.518Z,4.16
2023-02-11T07:40:57.500Z,4.16
2023-02-11T07:41:50.480Z,4.18
2023-02-11T07:42:57.490Z,4.20
2023-02-11T07:43:50.456Z,4.23
2023-02-11T07:44:50.759Z,4.23
2023-02-11T07:45:50.679Z,4.24
2023-02-11T07:46:50.481Z,4.26
2023-02-11T07:47:50.405Z,4.26
2023-02-11T07:48:50.395Z,4.26
2023-02-11T07:49:50.396Z,4.26
2023-02-11T07:50:50.366Z,4.26
2023-02-11T07:51:50.385Z,4.26
2023-02-11T07:52:50.340Z,4.24
2023-02-11T07:53:50.358Z,4.26
2023-02-11T07:54:50.335Z,4.27
2023-02-11T07:55:50.749Z,4.24
2023-02-11T07:56:50.297Z,4.26
2023-02-11T07:57:50.285Z,4.24
2023-02-11T07:58:50.287Z,4.24
2023-02-11T07:59:50.275Z,4.24
2023-02-11T08:00:50.330Z,4.27
2023-02-11T08:01:50.265Z,4.27
2023-02-11T08:02:50.235Z,4.29
2023-02-11T08:03:50.226Z,4.32
2023-02-11T08:04:50.246Z,4.33
2023-02-11T08:05:50.557Z,4.33
2023-02-11T08:06:50.185Z,4.34
2023-02-11T08:07:50.176Z,4.36
2023-02-11T08:08:50.165Z,4.34
2023-02-11T08:09:50.177Z,4.34
2023-02-11T08:10:50.490Z,4.36
2023-02-11T08:11:50.135Z,4.36
2023-02-11T08:12:50.113Z,4.40
2023-02-11T08:13:50.130Z,4.41
2023-02-11T08:14:50.124Z,4.44
2023-02-11T08:15:50.365Z,4.44
2023-02-11T08:16:50.146Z,4.44
2023-02-11T08:17:50.076Z,4.45
2023-02-11T08:18:50.057Z,4.44
2023-02-11T08:19:50.044Z,4.44
2023-02-11T08:20:50.365Z,4.42
2023-02-11T08:21:50.029Z,4.41
2023-02-11T08:22:49.994Z,4.40
2023-02-11T08:23:50.004Z,4.37
2023-02-11T08:24:52.314Z,4.37
2023-02-11T08:25:49.976Z,4.37
2023-02-11T08:26:49.973Z,4.40
2023-02-11T08:27:49.947Z,4.41
2023-02-11T08:28:49.933Z,4.41
2023-02-11T08:29:49.934Z,4.40
2023-02-11T08:30:50.285Z,4.41
2023-02-11T08:31:49.973Z,4.44
2023-02-11T08:32:49.899Z,4.44
2023-02-11T08:33:49.887Z,4.45
2023-02-11T08:34:49.895Z,4.47
2023-02-11T08:35:49.863Z,4.45
2023-02-11T08:36:49.849Z,4.47
2023-02-11T08:37:49.860Z,4.50
2023-02-11T08:38:49.812Z,4.51
2023-02-11T08:39:49.831Z,4.54
2023-02-11T08:40:50.195Z,4.52
2023-02-11T08:41:49.807Z,4.54
2023-02-11T08:42:49.794Z,4.55
2023-02-11T08:43:49.825Z,4.58
2023-02-11T08:44:49.772Z,4.59
2023-02-11T08:45:50.067Z,4.62
2023-02-11T08:46:49.732Z,4.66
2023-02-11T08:47:49.755Z,4.67
2023-02-11T08:48:49.702Z,4.66
2023-02-11T08:49:49.700Z,4.67
2023-02-11T08:50:49.684Z,4.67
2023-02-11T08:51:49.676Z,4.66
2023-02-11T08:52:49.674Z,4.65
2023-02-11T08:53:49.650Z,4.66
2023-02-11T08:54:49.642Z,4.67
2023-02-11T08:55:49.969Z,4.69
2023-02-11T08:56:49.618Z,4.69
2023-02-11T08:57:49.612Z,4.65
2023-02-11T08:58:49.594Z,4.65
2023-02-11T08:59:49.614Z,4.65
2023-02-11T09:00:50.052Z,4.66
2023-02-11T09:01:49.666Z,4.66
2023-02-11T09:02:49.983Z,4.69
2023-02-11T09:03:49.866Z,4.70
2023-02-11T09:04:49.539Z,4.72
2023-02-11T09:05:49.515Z,4.75
2023-02-11T09:06:49.506Z,4.77
2023-02-11T09:07:49.495Z,4.77
2023-02-11T09:08:49.579Z,4.77
2023-02-11T09:09:52.211Z,4.78
2023-02-11T09:10:49.859Z,4.77
2023-02-11T09:11:49.446Z,4.77
2023-02-11T09:12:49.434Z,4.78
2023-02-11T09:13:50.510Z,4.78
2023-02-11T09:14:49.435Z,4.80
2023-02-11T09:15:49.413Z,4.82
2023-02-11T09:16:49.504Z,4.80
2023-02-11T09:17:49.393Z,4.80
2023-02-11T09:18:49.394Z,4.84
2023-02-11T09:19:49.441Z,4.84
2023-02-11T09:20:49.525Z,4.85
2023-02-11T09:21:49.370Z,4.88
2023-02-11T09:22:49.340Z,4.91
2023-02-11T09:23:49.353Z,4.92
2023-02-11T09:24:49.330Z,4.97
2023-02-11T09:25:49.558Z,4.99
2023-02-11T09:26:49.276Z,5.04
2023-02-11T09:27:49.268Z,5.04
2023-02-11T09:28:49.252Z,5.06
2023-02-11T09:29:49.271Z,5.07
2023-02-11T09:30:49.663Z,5.10
2023-02-11T09:31:49.366Z,5.13
2023-02-11T09:32:49.216Z,5.15
2023-02-11T09:33:49.210Z,5.18
2023-02-11T09:34:49.530Z,5.20
2023-02-11T09:35:49.187Z,5.20
2023-02-11T09:36:49.167Z,5.20
2023-02-11T09:37:49.183Z,5.21
2023-02-11T09:38:49.150Z,5.22
2023-02-11T09:39:49.221Z,5.24
2023-02-11T09:40:49.387Z,5.24
2023-02-11T09:41:49.121Z,5.22
2023-02-11T09:42:49.116Z,5.25
2023-02-11T09:43:49.186Z,5.24
2023-02-11T09:44:49.108Z,5.24
2023-02-11T09:45:49.117Z,5.22
2023-02-11T09:46:49.084Z,5.21
2023-02-11T09:47:49.057Z,5.20
2023-02-11T09:48:49.042Z,5.20
2023-02-11T09:49:49.307Z,5.20
2023-02-11T09:50:49.211Z,5.20
2023-02-11T09:51:49.037Z,5.22
2023-02-11T09:52:49.011Z,5.24
2023-02-11T09:53:49.067Z,5.27
2023-02-11T09:54:49.437Z,5.25
2023-02-11T09:55:48.973Z,5.27
2023-02-11T09:56:49.002Z,5.28
2023-02-11T09:57:48.968Z,5.33
2023-02-11T09:58:48.924Z,5.35
2023-02-11T09:59:48.922Z,5.38
2023-02-11T10:00:49.124Z,5.40
2023-02-11T10:01:49.002Z,5.45
2023-02-11T10:02:48.892Z,5.45
2023-02-11T10:03:48.932Z,5.46
2023-02-11T10:04:49.197Z,5.51
2023-02-11T10:05:48.861Z,5.53
2023-02-11T10:06:48.834Z,5.56
2023-02-11T10:07:48.832Z,5.57
2023-02-11T10:08:48.813Z,5.58
2023-02-11T10:09:49.131Z,5.60
2023-02-11T10:10:49.029Z,5.61
2023-02-11T10:11:48.784Z,5.63
2023-02-11T10:12:48.780Z,5.63
2023-02-11T10:13:48.816Z,5.61
2023-02-11T10:14:50.663Z,5.64
2023-02-11T10:15:48.833Z,5.65
2023-02-11T10:16:48.730Z,5.68
2023-02-11T10:17:48.727Z,5.67
2023-02-11T10:18:48.838Z,5.71
2023-02-11T10:19:48.707Z,5.72
2023-02-11T10:20:48.871Z,5.74
2023-02-11T10:21:48.666Z,5.75
2023-02-11T10:22:48.666Z,5.75
2023-02-11T10:23:48.688Z,5.78
2023-02-11T10:24:48.969Z,5.81
2023-02-11T10:25:48.654Z,5.83
2023-02-11T10:26:48.636Z,5.86
2023-02-11T10:27:48.609Z,5.90
2023-02-11T10:28:48.613Z,5.91
2023-02-11T10:29:48.579Z,5.96
2023-02-11T10:30:48.707Z,5.97
2023-02-11T10:31:48.638Z,5.99
2023-02-11T10:32:48.560Z,6.01
2023-02-11T10:33:48.579Z,6.04
2023-02-11T10:34:48.583Z,6.08
2023-02-11T10:35:48.561Z,6.09
2023-02-11T10:36:48.508Z,6.09
2023-02-11T10:37:48.487Z,6.11
2023-02-11T10:38:50.450Z,6.14
2023-02-11T10:39:48.465Z,6.15
2023-02-11T10:40:56.501Z,6.18
2023-02-11T10:41:48.449Z,6.19
2023-02-11T10:42:48.435Z,6.21
2023-02-11T10:43:48.429Z,6.21
2023-02-11T10:44:48.442Z,6.27
2023-02-11T10:45:48.505Z,6.27
2023-02-11T10:46:48.435Z,6.28
2023-02-11T10:47:48.434Z,6.30
2023-02-11T10:48:48.389Z,6.33
2023-02-11T10:49:48.358Z,6.34
2023-02-11T10:50:49.336Z,6.40
2023-02-11T10:51:48.330Z,6.41
2023-02-11T10:52:48.340Z,6.44
2023-02-11T10:53:48.370Z,6.44
2023-02-11T10:54:48.338Z,6.44
2023-02-11T10:55:48.292Z,6.43
2023-02-11T10:56:48.270Z,6.43
2023-02-11T10:57:48.268Z,6.46
2023-02-11T10:58:48.251Z,6.46
2023-02-11T10:59:48.254Z,6.48
2023-02-11T11:00:48.320Z,6.49
2023-02-11T11:01:48.290Z,6.51
2023-02-11T11:02:48.223Z,6.52
2023-02-11T11:03:48.254Z,6.51
2023-02-11T11:04:48.227Z,6.54
2023-02-11T11:05:48.170Z,6.54
2023-02-11T11:06:48.164Z,6.54
2023-02-11T11:07:48.144Z,6.54
2023-02-11T11:08:48.198Z,6.56
2023-02-11T11:09:48.134Z,6.58
2023-02-11T11:10:48.153Z,6.56
2023-02-11T11:11:48.104Z,6.58
2023-02-11T11:12:48.089Z,6.58
2023-02-11T11:13:48.105Z,6.59
2023-02-11T11:14:48.072Z,6.59
2023-02-11T11:15:48.078Z,6.62
2023-02-11T11:16:48.054Z,6.61
2023-02-11T11:17:48.049Z,6.62
2023-02-11T11:18:48.055Z,6.62
2023-02-11T11:19:48.055Z,6.61
2023-02-11T11:20:48.095Z,6.62
2023-02-11T11:21:47.982Z,6.64
2023-02-11T11:22:47.963Z,6.64
2023-02-11T11:23:47.963Z,6.66
2023-02-11T11:24:47.972Z,6.67
2023-02-11T11:25:47.942Z,6.67
2023-02-11T11:26:47.932Z,6.70
2023-02-11T11:27:47.929Z,6.71
2023-02-11T11:28:47.904Z,6.70
2023-02-11T11:29:47.915Z,6.70
2023-02-11T11:30:47.942Z,6.69
2023-02-11T11:31:47.967Z,6.69
2023-02-11T11:32:47.853Z,6.67
2023-02-11T11:33:47.872Z,6.67
2023-02-11T11:34:47.822Z,6.64
2023-02-11T11:35:47.821Z,6.66
2023-02-11T11:36:47.804Z,6.67
2023-02-11T11:37:47.801Z,6.67
2023-02-11T11:38:47.791Z,6.69
2023-02-11T11:39:47.781Z,6.70
2023-02-11T11:40:47.809Z,6.70
2023-02-11T11:41:47.860Z,6.71
2023-02-11T11:42:47.740Z,6.73
2023-02-11T11:43:47.739Z,6.74
2023-02-11T11:44:47.720Z,6.76
2023-02-11T11:45:47.690Z,6.76
2023-02-11T11:46:47.748Z,6.79
2023-02-11T11:47:47.690Z,6.79
2023-02-11T11:48:48.621Z,6.79
2023-02-11T11:49:47.664Z,6.77
2023-02-11T11:50:47.709Z,6.77
2023-02-11T11:51:47.628Z,6.76
2023-02-11T11:52:47.618Z,6.79
2023-02-11T11:53:47.611Z,6.80
2023-02-11T11:54:47.609Z,6.81
2023-02-11T11:55:47.593Z,6.84
2023-02-11T11:56:47.568Z,6.84
2023-02-11T11:57:47.563Z,6.87
2023-02-11T11:58:47.558Z,6.88
2023-02-11T11:59:47.541Z,6.91
2023-02-11T12:00:47.537Z,6.94
2023-02-11T12:01:47.514Z,6.94
2023-02-11T12:02:47.525Z,6.97
2023-02-11T12:03:47.506Z,6.99
2023-02-11T12:04:47.480Z,7.03
2023-02-11T12:05:47.475Z,7.03
2023-02-11T12:06:47.478Z,7.05
2023-02-11T12:07:47.450Z,7.10
2023-02-11T12:08:47.444Z,7.10
2023-02-11T12:09:47.419Z,7.13
2023-02-11T12:10:47.410Z,7.16
2023-02-11T12:11:47.390Z,7.17
2023-02-11T12:12:47.383Z,7.21
2023-02-11T12:13:47.388Z,7.21
2023-02-11T12:14:47.356Z,7.24
2023-02-11T12:15:47.350Z,7.28
2023-02-11T12:16:47.363Z,7.31
2023-02-11T12:17:47.323Z,7.32
2023-02-11T12:18:47.710Z,7.35
2023-02-11T12:19:47.299Z,7.35
2023-02-11T12:20:47.296Z,7.37
2023-02-11T12:21:47.282Z,7.40
2023-02-11T12:22:47.418Z,7.45
2023-02-11T12:23:47.300Z,7.46
2023-02-11T12:24:47.239Z,7.49
2023-02-11T12:25:47.260Z,7.50
2023-02-11T12:26:47.231Z,7.49
2023-02-11T12:27:47.208Z,7.48
2023-02-11T12:28:47.191Z,7.49
2023-02-11T12:29:47.204Z,7.49
2023-02-11T12:30:47.211Z,7.49
2023-02-11T12:31:47.283Z,7.48
2023-02-11T12:32:47.141Z,7.49
2023-02-11T12:33:47.143Z,7.49
2023-02-11T12:34:47.131Z,7.49
2023-02-11T12:35:47.112Z,7.48
2023-02-11T12:36:47.102Z,7.46
2023-02-11T12:37:47.093Z,7.45
2023-02-11T12:38:47.083Z,7.43
2023-02-11T12:39:47.092Z,7.39
2023-02-11T12:40:47.048Z,7.37
2023-02-11T12:41:47.058Z,7.37
2023-02-11T12:42:47.041Z,7.39
2023-02-11T12:43:47.023Z,7.39
2023-02-11T12:44:47.026Z,7.40
2023-02-11T12:45:47.073Z,7.42
2023-02-11T12:46:46.992Z,7.45
2023-02-11T12:47:46.964Z,7.43
2023-02-11T12:48:46.964Z,7.45
2023-02-11T12:49:46.975Z,7.46
2023-02-11T12:50:46.955Z,7.48
2023-02-11T12:51:47.016Z,7.46
2023-02-11T12:52:46.918Z,7.46
2023-02-11T12:53:46.913Z,7.46
2023-02-11T12:54:46.915Z,7.49
2023-02-11T12:55:46.874Z,7.50
2023-02-11T12:56:46.868Z,7.53
2023-02-11T12:57:46.855Z,7.53
2023-02-11T12:58:46.839Z,7.55
2023-02-11T12:59:46.844Z,7.57
2023-02-11T13:00:46.864Z,7.60
2023-02-11T13:01:46.806Z,7.61
2023-02-11T13:02:46.871Z,7.61
2023-02-11T13:03:46.786Z,7.63
2023-02-11T13:04:46.786Z,7.63
2023-02-11T13:05:46.782Z,7.64
2023-02-11T13:06:46.762Z,7.63
2023-02-11T13:07:46.755Z,7.63
2023-02-11T13:08:46.743Z,7.61
2023-02-11T13:09:46.759Z,7.61
2023-02-11T13:10:46.708Z,7.61
2023-02-11T13:11:46.709Z,7.63
2023-02-11T13:12:46.680Z,7.63
2023-02-11T13:13:46.681Z,7.61
2023-02-11T13:14:46.661Z,7.60
2023-02-11T13:15:46.680Z,7.60
2023-02-11T13:16:46.713Z,7.58
2023-02-11T13:17:46.630Z,7.57
2023-02-11T13:18:46.611Z,7.58